หน้าหลัก
METAR-TAF:

METAR-TAF

ท่าอากาศยาน :

Leuchars, สกอตแลนด์

ละติจูด: 56-23N, ลองจิจูด: 002-52W, ความสูง: 12 ม.

การสังเกตสภาพอากาศปัจจุบัน

รายงานได้ทำขึ้นเมื่อ 33 นาทีที่แล้ว ณ เวลา 23:50 UTC
ลม 3 นอตจากตะวันออกเฉียงเหนือ
อุณหภูมิ 10°C
ความชื้น 87%
ความกดอากาศ 1022 hPa
ทัศนวิสัย 10 กม. หรือมากกว่า
มีเมฆเป็นส่วนมากเว้นเป็นระยะที่ความสูง 3800 ฟุต

METAR: EGQL 182350Z 04003KT 9999 BKN038 10/08 Q1022 RMK BLU

เวลา: 01:23 (00:23 UTC)

การพยากรณ์

รายงานได้ทำขึ้นเมื่อ 28 นาทีที่แล้ว ณ เวลา 23:55 UTC
การพยากรณ์มีผลตั้งแต่วันที่ 19 ณ เวลา 00 UTC จนถึงวันที่ 19 ณ เวลา 09 UTC
ลม 5 นอตจากตะวันออกเฉียงเหนือ
ทัศนวิสัย 10 กม. หรือมากกว่า
มีเมฆน้อยที่ความสูง 2000 ฟุต
มีเมฆเป็นส่วนมากเว้นเป็นระยะที่ความสูง 4000 ฟุต
ความน่าจะเป็น 30% :
ชั่วคราว
ตั้งแต่วันที่ 19 ณ เวลา 00 UTC จนถึงวันที่ 19 ณ เวลา 09 UTC
มีเมฆกระจายเป็นบางส่วนที่ความสูง 2000 ฟุต

TAF: EGQL 182355Z 1900/1909 05005KT 9999 FEW020 BKN040 PROB30 TEMPO 1900/1909 SCT020

สังเกตการณ์สภาพอากาศและพยากรณ์อากาศของสนามบินมากกว่า 4000 แห่ง (รายงาน METAR และ TAF).

สถานีที่ดูได้จะแสดงไว้ด้วยจุดสีเหลืองและสีแดงบนแผนที่.

เลื่อนเมาส์ไปเหนือจุดเพื่อดูชื่อสถานี.

แล้วคลิกเพื่อดูสังเกตการณ์และการพยากรณ์สภาพอากาศ.

ในการเปลี่ยนแผนที่: คลิกที่ปุ่มสีเขียวที่มีกากบาทสีดำเพื่อซูมเข้า; ที่ปุ่มสีเขียวที่มีขีดเพื่อซูมออก; หรือที่ลูกศรสีเขียวเพื่อไปยังแผนที่ที่อยู่ติดกัน.


METAR-TAF: